Time,TemperatureF,DewpointF,PressureIn,WindDirection,WindDirectionDegrees,WindSpeedMPH,WindSpeedGustMPH,Humidity,HourlyPrecipIn,Conditions,Clouds,dailyrainin,SoftwareType,DateUTC
2013-08-28 07:16:00,73.8,67.6,29.87,WSW,256,1.0,5.0,81,0.00,,,0.00,Wunderground v.1.15,2013-08-28 12:16:00,
2013-08-28 07:21:00,74.0,67.8,29.87,West,276,1.0,5.0,81,0.00,,,0.00,Wunderground v.1.15,2013-08-28 12:21:00,
2013-08-28 07:26:00,74.3,68.1,29.87,WSW,250,1.0,2.0,81,0.00,,,0.00,Wunderground v.1.15,2013-08-28 12:26:00,
2013-08-28 07:31:00,74.6,68.0,29.88,WSW,251,1.0,2.0,80,0.00,,,0.00,Wunderground v.1.15,2013-08-28 12:31:00,
2013-08-28 07:41:00,75.0,68.4,29.87,WSW,244,2.0,3.0,80,0.00,,,0.00,Wunderground v.1.15,2013-08-28 12:41:00,
2013-08-28 07:51:00,75.4,68.4,29.88,West,267,3.0,3.0,79,0.00,,,0.00,Wunderground v.1.15,2013-08-28 12:51:00,
2013-08-28 07:56:00,75.7,68.7,29.87,WSW,256,2.0,2.0,79,0.00,,,0.00,Wunderground v.1.15,2013-08-28 12:56:00,
2013-08-28 08:06:00,76.3,68.9,29.88,WSW,250,2.0,4.0,78,0.00,,,0.00,Wunderground v.1.15,2013-08-28 13:06:00,
2013-08-28 08:11:00,76.6,69.2,29.88,WSW,255,2.0,2.0,78,0.00,,,0.00,Wunderground v.1.15,2013-08-28 13:11:00,
2013-08-28 08:21:00,77.3,69.5,29.88,WNW,284,2.0,2.0,77,0.00,,,0.00,Wunderground v.1.15,2013-08-28 13:21:00,
2013-08-28 08:31:00,77.8,69.6,29.88,NNW,331,2.0,2.0,76,0.00,,,0.00,Wunderground v.1.15,2013-08-28 13:31:00,
2013-08-28 08:36:00,78.2,69.6,29.88,NW,323,2.0,2.0,75,0.00,,,0.00,Wunderground v.1.15,2013-08-28 13:36:00,
2013-08-28 08:46:00,78.7,70.5,29.88,WSW,244,2.0,4.0,76,0.00,,,0.00,Wunderground v.1.15,2013-08-28 13:46:00,
2013-08-28 08:51:00,78.9,70.7,29.88,West,261,2.0,5.0,76,0.00,,,0.00,Wunderground v.1.15,2013-08-28 13:51:00,
2013-08-28 09:01:00,79.3,70.3,29.87,West,276,3.0,6.0,74,0.00,,,0.00,Wunderground v.1.15,2013-08-28 14:01:00,
2013-08-28 09:11:00,79.8,70.8,29.87,West,265,3.0,3.0,74,0.00,,,0.00,Wunderground v.1.15,2013-08-28 14:11:00,
2013-08-28 09:21:00,80.4,70.9,29.87,NNW,345,3.0,3.0,73,0.00,,,0.00,Wunderground v.1.15,2013-08-28 14:21:00,
2013-08-28 09:31:00,80.9,71.0,29.87,SSW,210,2.0,4.0,72,0.00,,,0.00,Wunderground v.1.15,2013-08-28 14:31:00,
2013-08-28 09:41:00,81.3,72.2,29.87,WSW,238,2.0,2.0,74,0.00,,,0.00,Wunderground v.1.15,2013-08-28 14:41:00,
2013-08-28 09:46:00,81.8,72.3,29.87,WSW,255,1.0,2.0,73,0.00,,,0.00,Wunderground v.1.15,2013-08-28 14:46:00,
2013-08-28 09:56:00,82.4,72.9,29.87,WSW,258,1.0,5.0,73,0.00,,,0.00,Wunderground v.1.15,2013-08-28 14:56:00,
2013-08-28 10:06:00,83.2,73.6,29.88,North,349,2.0,3.0,73,0.00,,,0.00,Wunderground v.1.15,2013-08-28 15:06:00,
2013-08-28 10:11:00,83.4,73.4,29.88,NNW,340,2.0,2.0,72,0.00,,,0.00,Wunderground v.1.15,2013-08-28 15:11:00,
2013-08-28 10:21:00,83.1,73.1,29.88,West,274,2.0,2.0,72,0.00,,,0.00,Wunderground v.1.15,2013-08-28 15:21:00,
2013-08-28 10:31:00,83.6,73.6,29.88,NNW,334,3.0,3.0,72,0.00,,,0.00,Wunderground v.1.15,2013-08-28 15:31:00,
2013-08-28 10:36:00,83.7,74.5,29.88,NW,323,3.0,3.0,74,0.00,,,0.00,Wunderground v.1.15,2013-08-28 15:36:00,
2013-08-28 10:41:00,83.9,74.3,29.88,NNW,331,3.0,3.0,73,0.00,,,0.00,Wunderground v.1.15,2013-08-28 15:41:00,
2013-08-28 10:51:00,84.2,74.6,29.88,North,355,3.0,3.0,73,0.00,,,0.00,Wunderground v.1.15,2013-08-28 15:51:00,
2013-08-28 11:01:00,84.4,74.4,29.88,North,5,3.0,6.0,72,0.00,,,0.00,Wunderground v.1.15,2013-08-28 16:01:00,
2013-08-28 11:11:00,84.4,74.4,29.89,North,5,3.0,3.0,72,0.00,,,0.00,Wunderground v.1.15,2013-08-28 16:11:00,
2013-08-28 11:21:00,84.7,75.1,29.89,North,5,4.0,4.0,73,0.00,,,0.00,Wunderground v.1.15,2013-08-28 16:21:00,
2013-08-28 11:26:00,85.0,75.4,29.89,NW,323,4.0,4.0,73,0.00,,,0.00,Wunderground v.1.15,2013-08-28 16:26:00,
2013-08-28 11:36:00,85.3,74.8,29.89,North,10,2.0,5.0,71,0.00,,,0.00,Wunderground v.1.15,2013-08-28 16:36:00,
2013-08-28 11:46:00,85.3,75.7,29.89,North,5,3.0,6.0,73,0.00,,,0.00,Wunderground v.1.15,2013-08-28 16:46:00,
2013-08-28 11:56:00,85.8,74.4,29.89,NNE,28,3.0,4.0,69,0.00,,,0.00,Wunderground v.1.15,2013-08-28 16:56:00,
2013-08-28 12:06:00,85.6,75.1,29.89,ESE,105,3.0,4.0,71,0.00,,,0.00,Wunderground v.1.15,2013-08-28 17:06:00,
2013-08-28 12:11:00,85.9,75.8,29.89,NNW,344,1.0,1.0,72,0.00,,,0.00,Wunderground v.1.15,2013-08-28 17:11:00,
2013-08-28 12:16:00,86.2,75.7,29.89,NNE,15,2.0,2.0,71,0.00,,,0.00,Wunderground v.1.15,2013-08-28 17:16:00,
2013-08-28 12:26:00,86.5,76.0,29.89,NW,323,2.0,4.0,71,0.00,,,0.00,Wunderground v.1.15,2013-08-28 17:26:00,
2013-08-28 12:36:00,87.1,77.0,29.89,NW,305,1.0,2.0,72,0.00,,,0.00,Wunderground v.1.15,2013-08-28 17:36:00,
2013-08-28 12:41:00,87.1,76.1,29.89,WSW,245,1.0,4.0,70,0.00,,,0.00,Wunderground v.1.15,2013-08-28 17:41:00,
2013-08-28 12:51:00,87.5,76.1,29.89,West,270,2.0,4.0,69,0.00,,,0.00,Wunderground v.1.15,2013-08-28 17:51:00,
2013-08-28 13:01:00,88.1,76.6,29.89,NNW,331,3.0,3.0,69,0.00,,,0.00,Wunderground v.1.15,2013-08-28 18:01:00,
2013-08-28 13:06:00,88.0,76.5,29.89,NNW,331,3.0,3.0,69,0.00,,,0.00,Wunderground v.1.15,2013-08-28 18:06:00,
2013-08-28 13:16:00,88.4,76.5,29.89,NNE,17,3.0,4.0,68,0.00,,,0.00,Wunderground v.1.15,2013-08-28 18:16:00,
2013-08-28 13:21:00,88.3,76.8,29.89,North,5,3.0,3.0,69,0.00,,,0.00,Wunderground v.1.15,2013-08-28 18:21:00,
2013-08-28 13:31:00,88.2,76.3,29.89,NNE,32,3.0,3.0,68,0.00,,,0.00,Wunderground v.1.15,2013-08-28 18:31:00,
2013-08-28 13:41:00,88.0,77.0,29.89,North,5,2.0,2.0,70,0.00,,,0.00,Wunderground v.1.15,2013-08-28 18:41:00,
2013-08-28 13:51:00,87.4,77.3,29.90,NE,53,4.0,4.0,72,0.00,,,0.00,Wunderground v.1.15,2013-08-28 18:51:00,
2013-08-28 14:01:00,86.6,77.3,29.89,NE,53,5.0,5.0,74,0.00,,,0.00,Wunderground v.1.15,2013-08-28 19:01:00,
2013-08-28 14:06:00,86.4,77.5,29.90,ENE,59,5.0,8.0,75,0.00,,,0.00,Wunderground v.1.15,2013-08-28 19:06:00,
2013-08-28 14:16:00,86.3,77.0,29.90,NE,45,6.0,6.0,74,0.00,,,0.00,Wunderground v.1.15,2013-08-28 19:16:00,
2013-08-28 14:26:00,86.4,77.9,29.89,ENE,58,6.0,8.0,76,0.00,,,0.00,Wunderground v.1.15,2013-08-28 19:26:00,
2013-08-28 14:36:00,86.8,77.9,29.89,ENE,69,6.0,8.0,75,0.00,,,0.00,Wunderground v.1.15,2013-08-28 19:36:00,
2013-08-28 14:46:00,85.9,77.1,29.89,NNE,27,6.0,6.0,75,0.00,,,0.00,Wunderground v.1.15,2013-08-28 19:46:00,
2013-08-28 14:56:00,85.5,76.7,29.90,NNE,19,6.0,7.0,75,0.00,,,0.00,Wunderground v.1.15,2013-08-28 19:56:00,
2013-08-28 15:06:00,85.2,76.4,29.90,NE,42,7.0,7.0,75,0.00,,,0.00,Wunderground v.1.15,2013-08-28 20:06:00,
2013-08-28 15:11:00,84.7,76.3,29.90,NNE,26,7.0,7.0,76,0.00,,,0.00,Wunderground v.1.15,2013-08-28 20:11:00,
2013-08-28 15:21:00,84.3,76.3,29.90,NE,47,6.0,7.0,77,0.00,,,0.00,Wunderground v.1.15,2013-08-28 20:21:00,
2013-08-28 15:31:00,83.8,75.8,29.90,NE,55,7.0,8.0,77,0.00,,,0.00,Wunderground v.1.15,2013-08-28 20:31:00,
2013-08-28 15:36:00,83.5,75.5,29.90,NE,50,7.0,8.0,77,0.00,,,0.00,Wunderground v.1.15,2013-08-28 20:36:00,
2013-08-28 15:46:00,83.4,75.4,29.90,NE,50,6.0,8.0,77,0.00,,,0.00,Wunderground v.1.15,2013-08-28 20:46:00,
2013-08-28 15:56:00,83.4,75.4,29.90,NE,55,6.0,8.0,77,0.00,,,0.00,Wunderground v.1.15,2013-08-28 20:56:00,
2013-08-28 16:06:00,83.8,75.8,29.90,NNE,13,7.0,8.0,77,0.00,,,0.00,Wunderground v.1.15,2013-08-28 21:06:00,
2013-08-28 16:16:00,83.6,75.2,29.91,NNE,25,7.0,7.0,76,0.00,,,0.00,Wunderground v.1.15,2013-08-28 21:16:00,
2013-08-28 16:26:00,83.2,74.8,29.91,NNE,33,7.0,10.0,76,0.00,,,0.00,Wunderground v.1.15,2013-08-28 21:26:00,
2013-08-28 16:36:00,83.1,75.1,29.91,NE,49,6.0,10.0,77,0.00,,,0.00,Wunderground v.1.15,2013-08-28 21:36:00,